createdAt,value
2023-04-28T00:01:12.284Z,7.72
2023-04-28T00:03:38.878Z,5.75
2023-04-28T00:06:05.937Z,10.50
2023-04-28T00:10:58.544Z,7.93
2023-04-28T00:13:24.796Z,11.00
2023-04-28T00:15:52.898Z,9.95
2023-04-28T00:18:19.725Z,9.50
2023-04-28T00:20:46.026Z,9.57
2023-04-28T00:23:12.326Z,7.50
2023-04-28T00:25:38.659Z,11.07
2023-04-28T00:28:04.976Z,15.48
2023-04-28T00:30:31.580Z,11.65
2023-04-28T00:32:57.883Z,9.45
2023-04-28T00:35:24.171Z,8.15
2023-04-28T00:37:50.416Z,8.18
2023-04-28T00:40:16.692Z,12.30
2023-04-28T00:42:42.926Z,12.15
2023-04-28T00:45:09.337Z,10.88
2023-04-28T00:47:37.007Z,6.57
2023-04-28T00:50:05.626Z,9.82
2023-04-28T00:52:31.898Z,9.68
2023-04-28T00:54:58.122Z,10.20
2023-04-28T00:57:24.380Z,10.55
2023-04-28T00:59:50.753Z,9.65
2023-04-28T01:02:18.279Z,10.88
2023-04-28T01:04:45.415Z,8.05
2023-04-28T01:09:38.430Z,9.00
2023-04-28T01:12:04.821Z,12.30
2023-04-28T01:14:31.840Z,12.80
2023-04-28T01:16:58.148Z,15.13
2023-04-28T01:19:24.488Z,16.45
2023-04-28T01:21:50.962Z,30.17
2023-04-28T01:24:17.975Z,29.13
2023-04-28T01:26:45.451Z,23.10
2023-04-28T01:29:11.846Z,10.48
2023-04-28T01:31:38.284Z,8.07
2023-04-28T01:34:04.668Z,8.13
2023-04-28T01:36:31.707Z,12.02
2023-04-28T01:38:58.057Z,10.93
2023-04-28T01:41:24.306Z,9.23
2023-04-28T01:43:50.760Z,11.70
2023-04-28T01:46:17.078Z,9.10
2023-04-28T01:48:43.316Z,10.13
2023-04-28T01:51:09.551Z,23.80
2023-04-28T01:53:36.002Z,13.70
2023-04-28T01:56:02.501Z,10.18
2023-04-28T01:58:28.896Z,12.88
2023-04-28T02:00:55.118Z,10.30
2023-04-28T02:03:21.491Z,8.13
2023-04-28T02:05:47.879Z,14.35
2023-04-28T02:08:14.265Z,8.90
2023-04-28T02:10:40.569Z,11.25
2023-04-28T02:13:07.117Z,8.90
2023-04-28T02:15:33.625Z,11.48
2023-04-28T02:17:59.926Z,14.52
2023-04-28T02:20:27.033Z,9.55
2023-04-28T02:22:53.261Z,12.02
2023-04-28T02:25:19.535Z,11.68
2023-04-28T02:27:45.992Z,10.95
2023-04-28T02:30:12.391Z,13.32
2023-04-28T02:32:38.634Z,8.85
2023-04-28T02:35:05.051Z,16.33
2023-04-28T02:37:31.288Z,13.10
2023-04-28T02:39:58.130Z,11.52
2023-04-28T02:42:24.402Z,11.45
2023-04-28T02:44:50.675Z,11.80
2023-04-28T02:47:16.900Z,12.73
2023-04-28T02:49:43.123Z,10.50
2023-04-28T02:52:09.457Z,12.88
2023-04-28T02:54:37.090Z,11.48
2023-04-28T02:57:04.529Z,11.60
2023-04-28T02:59:30.919Z,8.57
2023-04-28T03:01:57.194Z,11.43
2023-04-28T03:04:23.531Z,10.07
2023-04-28T03:06:50.096Z,16.40
2023-04-28T03:09:16.686Z,16.00
2023-04-28T03:11:42.902Z,13.20
2023-04-28T03:14:09.169Z,10.35
2023-04-28T03:16:35.645Z,11.65
2023-04-28T03:19:01.945Z,13.73
2023-04-28T03:21:28.889Z,10.20
2023-04-28T03:26:21.472Z,14.88
2023-04-28T03:28:47.702Z,14.10
2023-04-28T03:31:13.920Z,14.93
2023-04-28T03:33:40.357Z,11.05
2023-04-28T03:36:06.761Z,18.30
2023-04-28T03:38:32.993Z,13.90
2023-04-28T03:40:59.237Z,10.18
2023-04-28T03:43:25.478Z,12.50
2023-04-28T03:45:52.010Z,9.23
2023-04-28T03:48:18.346Z,10.27
2023-04-28T03:50:45.520Z,11.20
2023-04-28T03:53:11.861Z,10.85
2023-04-28T03:55:38.391Z,9.90
2023-04-28T03:58:04.614Z,14.70
2023-04-28T04:00:31.090Z,13.35
2023-04-28T04:02:57.548Z,13.20
2023-04-28T04:05:24.129Z,12.50
2023-04-28T04:07:50.399Z,11.00
2023-04-28T04:10:17.140Z,13.50
2023-04-28T04:12:43.430Z,11.30
2023-04-28T04:15:09.781Z,11.10
2023-04-28T04:17:36.252Z,13.18
2023-04-28T04:20:02.511Z,12.50
2023-04-28T04:22:28.741Z,13.68
2023-04-28T04:24:55.295Z,9.65
2023-04-28T04:27:21.535Z,19.00
2023-04-28T04:29:48.665Z,16.02
2023-04-28T04:32:14.938Z,11.95
2023-04-28T04:34:41.312Z,11.75
2023-04-28T04:37:07.569Z,16.95
2023-04-28T04:39:33.794Z,12.32
2023-04-28T04:42:03.350Z,13.55
2023-04-28T04:44:33.693Z,17.55
2023-04-28T04:47:00.026Z,13.05
2023-04-28T04:49:26.306Z,11.95
2023-04-28T04:51:52.918Z,10.32
2023-04-28T04:54:19.148Z,14.95
2023-04-28T04:56:45.423Z,15.77
2023-04-28T04:59:11.769Z,15.35
2023-04-28T05:01:38.036Z,16.85
2023-04-28T05:04:04.513Z,18.67
2023-04-28T05:06:31.845Z,17.10
2023-04-28T05:08:59.253Z,14.73
2023-04-28T05:11:26.038Z,15.18
2023-04-28T05:13:52.279Z,16.15
2023-04-28T05:16:18.601Z,13.05
2023-04-28T05:18:44.864Z,13.15
2023-04-28T05:21:11.728Z,18.02
2023-04-28T05:23:37.986Z,18.38
2023-04-28T05:26:04.494Z,21.50
2023-04-28T05:28:31.018Z,15.52
2023-04-28T05:30:57.325Z,15.10
2023-04-28T05:33:24.030Z,16.98
2023-04-28T05:35:50.399Z,13.90
2023-04-28T05:38:16.665Z,18.58
2023-04-28T05:40:42.918Z,18.80
2023-04-28T05:43:09.153Z,16.90
2023-04-28T05:45:35.471Z,17.98
2023-04-28T05:48:01.820Z,23.05
2023-04-28T05:50:28.105Z,11.65
2023-04-28T05:52:54.325Z,17.08
2023-04-28T05:55:20.583Z,15.20
2023-04-28T05:57:52.976Z,16.80
2023-04-28T06:00:20.018Z,14.20
2023-04-28T06:02:46.464Z,15.85
2023-04-28T06:05:13.205Z,17.02
2023-04-28T06:07:39.693Z,19.35
2023-04-28T06:10:06.460Z,15.85
2023-04-28T06:12:32.675Z,13.77
2023-04-28T06:14:58.949Z,20.65
2023-04-28T06:17:25.388Z,16.65
2023-04-28T06:19:54.173Z,14.43
2023-04-28T06:22:20.469Z,16.05
2023-04-28T06:24:47.722Z,14.38
2023-04-28T06:27:14.144Z,18.65
2023-04-28T06:29:40.543Z,18.23
2023-04-28T06:32:06.812Z,16.10
2023-04-28T06:34:33.784Z,17.63
2023-04-28T06:39:26.449Z,25.55
2023-04-28T06:41:52.972Z,17.10
2023-04-28T06:44:19.316Z,14.73
2023-04-28T06:46:45.689Z,13.00
2023-04-28T06:49:11.978Z,16.85
2023-04-28T06:51:38.251Z,14.10
2023-04-28T06:54:04.525Z,25.15
2023-04-28T06:56:30.992Z,16.20
2023-04-28T06:58:57.413Z,13.60
2023-04-28T07:01:23.775Z,14.52
2023-04-28T07:03:50.266Z,14.55
2023-04-28T07:06:16.721Z,16.60
2023-04-28T07:08:43.720Z,12.70
2023-04-28T07:13:36.262Z,12.25
2023-04-28T07:16:02.633Z,11.65
2023-04-28T07:18:28.899Z,15.65
2023-04-28T07:20:55.334Z,14.88
2023-04-28T07:23:21.587Z,17.25
2023-04-28T07:25:47.846Z,16.73
2023-04-28T07:28:14.290Z,14.15
2023-04-28T07:30:40.532Z,15.40
2023-04-28T07:33:06.849Z,16.92
2023-04-28T07:35:33.298Z,18.08
2023-04-28T07:37:59.566Z,16.88
2023-04-28T07:40:25.904Z,16.92
2023-04-28T07:42:52.172Z,12.95
2023-04-28T07:45:18.521Z,16.30
2023-04-28T07:47:44.786Z,12.73
2023-04-28T07:50:11.831Z,12.55
2023-04-28T07:55:04.361Z,15.00
2023-04-28T07:57:30.653Z,16.02
2023-04-28T07:59:56.913Z,11.50
2023-04-28T08:02:23.367Z,9.95
2023-04-28T08:04:49.936Z,7.07
2023-04-28T08:07:16.521Z,6.47
2023-04-28T08:09:46.976Z,7.95
2023-04-28T08:12:13.530Z,8.43
2023-04-28T08:14:39.922Z,10.73
2023-04-28T08:17:06.154Z,10.93
2023-04-28T08:19:33.247Z,10.30
2023-04-28T08:22:00.051Z,16.30
2023-04-28T08:24:26.305Z,14.40
2023-04-28T08:26:52.546Z,14.00
2023-04-28T08:29:18.812Z,13.52
2023-04-28T08:31:45.655Z,14.27
2023-04-28T08:36:39.311Z,16.93
2023-04-28T08:39:08.438Z,14.65
2023-04-28T08:41:37.847Z,16.35
2023-04-28T08:44:07.025Z,18.95
2023-04-28T08:46:34.502Z,19.27
2023-04-28T08:49:04.225Z,17.25
2023-04-28T08:51:33.756Z,18.40
2023-04-28T08:56:34.825Z,15.70
2023-04-28T08:59:04.978Z,17.85
2023-04-28T09:01:31.757Z,16.73
2023-04-28T09:04:00.913Z,13.98
2023-04-28T09:06:28.166Z,15.95
2023-04-28T09:08:54.389Z,15.73
2023-04-28T09:11:20.962Z,12.23
2023-04-28T09:13:47.226Z,14.48
2023-04-28T09:16:13.685Z,14.70
2023-04-28T09:18:41.121Z,13.88
2023-04-28T09:21:08.330Z,11.48
2023-04-28T09:23:35.152Z,10.65
2023-04-28T09:26:06.510Z,10.70
2023-04-28T09:28:33.638Z,11.48
2023-04-28T09:30:59.974Z,13.65
2023-04-28T09:33:26.771Z,12.80
2023-04-28T09:35:53.500Z,11.32
2023-04-28T09:38:20.869Z,11.15
2023-04-28T09:40:54.739Z,9.48
2023-04-28T09:43:23.828Z,8.63
2023-04-28T09:45:50.086Z,10.50
2023-04-28T09:48:16.396Z,9.40
2023-04-28T09:50:42.779Z,9.85
2023-04-28T09:53:09.978Z,8.48
2023-04-28T09:55:36.652Z,7.57
2023-04-28T09:58:05.579Z,8.65
2023-04-28T10:00:33.512Z,7.40
2023-04-28T10:03:00.841Z,9.05
2023-04-28T10:05:27.661Z,8.10
2023-04-28T10:10:21.971Z,14.23
2023-04-28T10:12:48.327Z,11.27
2023-04-28T10:15:14.647Z,15.27
2023-04-28T10:17:40.925Z,79.10
2023-04-28T10:20:08.540Z,9.38
2023-04-28T10:22:43.767Z,15.45
2023-04-28T10:25:13.068Z,9.38
2023-04-28T10:27:43.837Z,8.45
2023-04-28T10:30:27.439Z,11.95
2023-04-28T10:33:14.007Z,12.15
2023-04-28T10:35:42.800Z,13.55
2023-04-28T10:38:10.803Z,12.73
2023-04-28T10:40:38.647Z,14.88
2023-04-28T10:43:05.638Z,19.25
2023-04-28T10:48:04.440Z,17.50
2023-04-28T10:50:38.859Z,19.35
2023-04-28T10:53:05.671Z,14.10
2023-04-28T10:55:33.699Z,13.07
2023-04-28T10:58:15.352Z,14.02
2023-04-28T11:00:42.270Z,14.13
2023-04-28T11:03:08.790Z,10.52
2023-04-28T11:05:36.092Z,12.60
2023-04-28T11:08:31.438Z,13.30
2023-04-28T11:11:09.841Z,8.98
2023-04-28T11:13:36.079Z,13.60
2023-04-28T11:16:02.849Z,6.95
2023-04-28T11:18:29.104Z,9.20
2023-04-28T11:20:57.846Z,6.05
2023-04-28T11:23:28.121Z,8.02
2023-04-28T11:25:54.964Z,5.13
2023-04-28T11:28:21.222Z,5.00
2023-04-28T11:30:47.550Z,7.28
2023-04-28T11:33:14.198Z,7.60
2023-04-28T11:35:43.519Z,5.88
2023-04-28T11:38:09.753Z,5.43
2023-04-28T11:40:36.106Z,5.40
2023-04-28T11:43:04.007Z,7.13
2023-04-28T11:45:30.389Z,5.00
2023-04-28T11:47:56.983Z,9.13
2023-04-28T11:50:36.366Z,3.67
2023-04-28T11:53:02.587Z,3.88
2023-04-28T11:55:29.528Z,7.10
2023-04-28T12:00:22.684Z,5.30
2023-04-28T12:02:49.216Z,8.52
2023-04-28T12:05:15.637Z,12.15
2023-04-28T12:07:43.417Z,9.10
2023-04-28T12:10:10.739Z,7.07
2023-04-28T12:15:07.270Z,9.32
2023-04-28T12:17:34.370Z,9.93
2023-04-28T12:20:04.919Z,10.50
2023-04-28T12:22:31.334Z,10.82
2023-04-28T12:25:08.333Z,7.35
2023-04-28T12:27:38.437Z,4.95
2023-04-28T12:30:24.093Z,6.88
2023-04-28T12:32:50.385Z,5.60
2023-04-28T12:35:16.727Z,5.28
2023-04-28T12:37:43.538Z,8.48
2023-04-28T12:42:36.426Z,5.82
2023-04-28T12:45:02.955Z,6.15
2023-04-28T12:47:29.344Z,5.38
2023-04-28T12:49:55.590Z,4.53
2023-04-28T12:52:21.855Z,7.18
2023-04-28T12:54:48.438Z,9.35
2023-04-28T12:57:15.209Z,4.95
2023-04-28T13:02:08.046Z,3.13
2023-04-28T13:04:34.645Z,4.40
2023-04-28T13:07:01.455Z,3.10
2023-04-28T13:09:27.762Z,5.90
2023-04-28T13:11:54.488Z,7.70
2023-04-28T13:14:21.045Z,6.32
2023-04-28T13:16:47.356Z,5.90
2023-04-28T13:19:14.619Z,4.65
2023-04-28T13:21:42.342Z,3.42
2023-04-28T13:24:09.075Z,3.70
2023-04-28T13:26:35.421Z,3.55
2023-04-28T13:29:02.437Z,3.88
2023-04-28T13:31:30.169Z,6.88
2023-04-28T13:33:56.960Z,3.38
2023-04-28T13:36:23.777Z,1.30
2023-04-28T13:41:16.887Z,2.63
2023-04-28T13:43:43.462Z,1.05
2023-04-28T13:46:10.695Z,1.15
2023-04-28T13:48:37.152Z,0.98
2023-04-28T13:51:03.990Z,1.10
2023-04-28T13:53:30.683Z,2.80
2023-04-28T13:55:57.683Z,3.33
2023-04-28T13:58:27.350Z,1.20
2023-04-28T14:00:56.253Z,2.72
2023-04-28T14:03:23.858Z,1.90
2023-04-28T14:05:54.034Z,1.48
2023-04-28T14:08:20.849Z,4.22
2023-04-28T14:13:14.342Z,1.77
2023-04-28T14:15:51.309Z,2.30
2023-04-28T14:18:24.588Z,1.55
2023-04-28T14:20:50.864Z,1.58
2023-04-28T14:23:17.432Z,3.90
2023-04-28T14:25:43.686Z,11.20
2023-04-28T14:28:09.917Z,2.17
2023-04-28T14:30:36.871Z,7.32
2023-04-28T14:33:03.187Z,1.90
2023-04-28T14:35:31.639Z,7.13
2023-04-28T14:37:58.203Z,6.25
2023-04-28T14:40:25.120Z,1.10
2023-04-28T14:42:51.478Z,4.95
2023-04-28T14:45:17.722Z,4.65
2023-04-28T14:47:44.019Z,2.75
2023-04-28T14:50:12.551Z,2.22
2023-04-28T14:52:40.501Z,2.90
2023-04-28T14:55:06.997Z,3.25
2023-04-28T14:57:34.915Z,1.25
2023-04-28T15:00:01.723Z,4.40
2023-04-28T15:02:29.401Z,3.35
2023-04-28T15:04:56.913Z,3.88
2023-04-28T15:07:23.724Z,3.97
2023-04-28T15:09:50.220Z,2.83
2023-04-28T15:12:16.517Z,4.82
2023-04-28T15:14:42.763Z,4.55
2023-04-28T15:17:09.888Z,2.22
2023-04-28T15:19:36.776Z,1.20
2023-04-28T15:24:29.870Z,1.92
2023-04-28T15:26:56.470Z,1.92
2023-04-28T15:29:22.707Z,1.23
2023-04-28T15:31:49.162Z,4.07
2023-04-28T15:34:15.707Z,10.65
2023-04-28T15:36:43.293Z,1.45
2023-04-28T15:39:10.299Z,3.83
2023-04-28T15:41:37.492Z,1.50
2023-04-28T15:44:04.823Z,1.90
2023-04-28T15:46:31.157Z,1.80
2023-04-28T15:48:57.436Z,4.15
2023-04-28T15:51:23.885Z,0.95
2023-04-28T15:53:50.789Z,2.25
2023-04-28T15:58:46.072Z,2.13
2023-04-28T16:01:12.433Z,3.30
2023-04-28T16:03:39.642Z,1.17
2023-04-28T16:06:06.642Z,2.85
2023-04-28T16:10:59.198Z,4.03
2023-04-28T16:13:26.455Z,2.03
2023-04-28T16:15:53.082Z,0.95
2023-04-28T16:18:19.400Z,1.70
2023-04-28T16:20:45.606Z,3.08
2023-04-28T16:23:13.884Z,2.30
2023-04-28T16:25:41.083Z,1.08
2023-04-28T16:28:07.440Z,1.33
2023-04-28T16:30:33.992Z,2.40
2023-04-28T16:33:00.367Z,2.30
2023-04-28T16:35:26.664Z,1.60
2023-04-28T16:37:52.883Z,4.00
2023-04-28T16:40:19.134Z,1.58
2023-04-28T16:42:46.019Z,4.60
2023-04-28T16:45:12.418Z,1.02
2023-04-28T16:47:42.115Z,2.25
2023-04-28T16:50:09.952Z,3.28
2023-04-28T16:52:36.209Z,1.45
2023-04-28T16:55:02.540Z,1.73
2023-04-28T16:57:28.973Z,3.00
2023-04-28T16:59:55.679Z,1.98
2023-04-28T17:04:48.817Z,2.72
2023-04-28T17:07:15.085Z,1.95
2023-04-28T17:09:41.306Z,4.20
2023-04-28T17:12:07.708Z,2.80
2023-04-28T17:14:35.393Z,2.63
2023-04-28T17:17:02.038Z,3.63
2023-04-28T17:19:28.322Z,6.88
2023-04-28T17:21:55.560Z,2.88
2023-04-28T17:24:21.831Z,4.75
2023-04-28T17:26:48.065Z,5.30
2023-04-28T17:29:14.349Z,3.92
2023-04-28T17:31:40.703Z,3.33
2023-04-28T17:34:07.106Z,2.28
2023-04-28T17:36:33.587Z,3.50
2023-04-28T17:38:59.909Z,6.22
2023-04-28T17:41:26.172Z,23.17
2023-04-28T17:43:52.557Z,29.88
2023-04-28T17:46:19.081Z,42.40
2023-04-28T17:48:45.536Z,19.10
2023-04-28T17:51:11.904Z,4.30
2023-04-28T17:53:39.153Z,4.22
2023-04-28T17:56:05.780Z,3.08
2023-04-28T17:58:33.075Z,4.63
2023-04-28T18:00:59.977Z,4.22
2023-04-28T18:05:52.574Z,5.25
2023-04-28T18:08:18.860Z,5.30
2023-04-28T18:10:45.077Z,5.10
2023-04-28T18:13:11.316Z,3.85
2023-04-28T18:15:37.544Z,7.68
2023-04-28T18:18:04.056Z,3.97
2023-04-28T18:20:30.345Z,4.43
2023-04-28T18:22:56.607Z,5.45
2023-04-28T18:25:23.372Z,6.75
2023-04-28T18:27:49.643Z,6.68
2023-04-28T18:30:15.924Z,7.55
2023-04-28T18:32:42.254Z,9.55
2023-04-28T18:35:08.641Z,19.10
2023-04-28T18:37:35.483Z,10.27
2023-04-28T18:42:27.965Z,12.18
2023-04-28T18:44:56.771Z,5.82
2023-04-28T18:47:23.257Z,4.32
2023-04-28T18:49:49.751Z,6.78
2023-04-28T18:52:16.086Z,4.93
2023-04-28T18:54:42.577Z,6.82
2023-04-28T18:57:09.075Z,7.10
2023-04-28T18:59:35.315Z,8.25
2023-04-28T19:02:02.192Z,5.25
2023-04-28T19:06:54.716Z,11.80
2023-04-28T19:09:20.948Z,5.65
2023-04-28T19:11:47.254Z,11.38
2023-04-28T19:14:14.173Z,12.48
2023-04-28T19:19:08.942Z,5.32
2023-04-28T19:21:40.635Z,13.52
2023-04-28T19:24:07.239Z,13.23
2023-04-28T19:26:33.696Z,18.10
2023-04-28T19:28:59.943Z,33.55
2023-04-28T19:31:26.395Z,20.92
2023-04-28T19:33:52.991Z,22.52
2023-04-28T19:36:19.230Z,16.38
2023-04-28T19:38:46.501Z,28.27
2023-04-28T19:41:12.760Z,7.90
2023-04-28T19:43:39.017Z,9.02
2023-04-28T19:46:05.503Z,2.45
2023-04-28T19:48:31.782Z,4.05
2023-04-28T19:50:58.047Z,2.35
2023-04-28T19:53:24.339Z,2.97
2023-04-28T19:55:50.768Z,4.30
2023-04-28T19:58:17.243Z,3.72
2023-04-28T20:00:43.586Z,2.92
2023-04-28T20:03:09.946Z,2.88
2023-04-28T20:05:39.506Z,3.22
2023-04-28T20:08:05.974Z,1.77
2023-04-28T20:10:32.289Z,2.63
2023-04-28T20:12:58.898Z,3.53
2023-04-28T20:15:25.343Z,2.53
2023-04-28T20:17:51.578Z,8.45
2023-04-28T20:20:17.951Z,4.65
2023-04-28T20:22:44.243Z,4.93
2023-04-28T20:25:10.818Z,1.52
2023-04-28T20:27:37.161Z,3.88
2023-04-28T20:30:03.622Z,3.13
2023-04-28T20:32:29.954Z,4.60
2023-04-28T20:34:56.219Z,4.22
2023-04-28T20:37:23.374Z,4.13
2023-04-28T20:39:50.785Z,2.70
2023-04-28T20:42:17.592Z,4.55
2023-04-28T20:44:44.210Z,3.47
2023-04-28T20:47:11.037Z,1.58
2023-04-28T20:52:05.029Z,4.53
2023-04-28T20:54:32.731Z,6.47
2023-04-28T20:57:00.223Z,2.42
2023-04-28T20:59:26.451Z,5.32
2023-04-28T21:01:52.704Z,2.05
2023-04-28T21:04:18.995Z,2.15
2023-04-28T21:06:48.882Z,4.10
2023-04-28T21:09:15.151Z,4.38
2023-04-28T21:11:41.441Z,6.95
2023-04-28T21:14:07.696Z,1.92
2023-04-28T21:16:33.997Z,5.72
2023-04-28T21:19:00.902Z,8.27
2023-04-28T21:23:53.413Z,2.63
2023-04-28T21:26:20.411Z,5.50
2023-04-28T21:28:46.643Z,7.10
2023-04-28T21:31:12.889Z,4.38
2023-04-28T21:33:39.125Z,9.20
2023-04-28T21:36:09.488Z,7.57
2023-04-28T21:38:37.082Z,10.38
2023-04-28T21:41:03.414Z,11.23
2023-04-28T21:43:29.621Z,5.45
2023-04-28T21:45:55.860Z,8.23
2023-04-28T21:48:22.343Z,9.27
2023-04-28T21:50:48.574Z,4.43
2023-04-28T21:53:14.828Z,5.60
2023-04-28T21:55:41.461Z,7.78
2023-04-28T21:58:07.817Z,4.65
2023-04-28T22:00:38.968Z,7.18
2023-04-28T22:03:05.803Z,3.60
2023-04-28T22:07:58.266Z,4.93
2023-04-28T22:10:24.504Z,6.20
2023-04-28T22:12:50.750Z,7.50
2023-04-28T22:15:17.051Z,2.55
2023-04-28T22:17:43.366Z,1.85
2023-04-28T22:20:09.820Z,3.33
2023-04-28T22:22:36.094Z,4.47
2023-04-28T22:25:02.372Z,4.50
2023-04-28T22:27:30.291Z,5.82
2023-04-28T22:29:58.566Z,3.63
2023-04-28T22:32:25.761Z,5.32
2023-04-28T22:34:52.015Z,2.80
2023-04-28T22:37:18.435Z,3.88
2023-04-28T22:39:44.686Z,3.13
2023-04-28T22:42:10.915Z,3.92
2023-04-28T22:44:37.465Z,4.32
2023-04-28T22:47:03.707Z,3.13
2023-04-28T22:49:30.468Z,4.80
2023-04-28T22:51:57.974Z,3.83
2023-04-28T22:54:24.335Z,6.05
2023-04-28T22:56:52.748Z,8.05
2023-04-28T22:59:19.701Z,3.22
2023-04-28T23:01:46.017Z,4.18
2023-04-28T23:04:12.795Z,4.85
2023-04-28T23:06:39.168Z,4.60
2023-04-28T23:09:05.499Z,12.45
2023-04-28T23:11:31.751Z,9.43
2023-04-28T23:13:57.992Z,3.97
2023-04-28T23:16:24.280Z,5.43
2023-04-28T23:18:50.591Z,6.53
2023-04-28T23:21:16.853Z,9.30
2023-04-28T23:23:43.063Z,8.00
2023-04-28T23:26:09.298Z,9.98
2023-04-28T23:28:35.552Z,4.05
2023-04-28T23:31:02.338Z,6.22
2023-04-28T23:33:29.705Z,9.70
2023-04-28T23:35:56.027Z,4.93
2023-04-28T23:38:22.245Z,6.03
2023-04-28T23:40:48.466Z,10.10
2023-04-28T23:43:15.035Z,8.35
2023-04-28T23:45:41.315Z,7.30
2023-04-28T23:48:08.069Z,4.38
2023-04-28T23:50:34.294Z,8.45
2023-04-28T23:53:00.983Z,3.42
2023-04-28T23:55:27.196Z,6.88
2023-04-28T23:57:53.427Z,7.70
